Time;durP1;ratioP1;P1;durP2;ratioP2;P2;SDS_P1;SDS_P2;PMS_P1;PMS_P2;Temp;Humidity;BMP_temperature;BMP_pressure;BME280_temperature;BME280_humidity;BME280_pressure;Samples;Min_cycle;Max_cycle;Signal;HPM_P1;HPM_P2
2022/03/21 00:01:23;;;;;;;;;;;;;;;3.40;66.37;101970.19;5019196;28;1308;-90
2022/03/21 00:03:48;;;;;;;;;;;;;;;3.21;66.13;101968.19;5018964;28;1215;-91
2022/03/21 00:06:14;;;;;;;;;;;;;;;3.15;66.46;101971.66;5019111;28;1256;-91
2022/03/21 00:08:39;;;;;;;;;;;;;;;3.09;66.75;101968.91;5035830;28;1410;-91
2022/03/21 00:11:04;;;;;;;;;;;;;;;2.92;68.05;101973.75;5018989;28;1263;-91
2022/03/21 00:13:29;;;;;;;;;;;;;;;2.95;67.71;101968.81;5036398;28;1269;-91
2022/03/21 00:15:55;;;;;;;;;;;;;;;2.86;68.17;101969.13;5035230;28;1901;-90
2022/03/21 00:18:20;;;;;;;;;;;;;;;2.83;67.87;101969.50;5024761;28;1386;-90
2022/03/21 00:20:47;;;;;;;;;;;;;;;2.95;67.77;101971.50;5019065;28;1383;-91
2022/03/21 00:23:13;;;;;;;;;;;;;;;3.03;67.12;101965.13;5036296;28;1161;-91
2022/03/21 00:25:38;;;;;;;;;;;;;;;2.97;67.11;101966.75;5018956;28;1201;-91
2022/03/21 00:28:04;;;;;;;;;;;;;;;2.77;67.72;101970.28;5029260;28;1440;-90
2022/03/21 00:30:29;;;;;;;;;;;;;;;2.72;67.60;101976.28;5038840;28;1328;-90
2022/03/21 00:32:55;;;;;;;;;;;;;;;2.71;68.06;101979.19;5038608;28;1185;-91
2022/03/21 00:35:21;;;;;;;;;;;;;;;2.69;68.33;101978.53;5038445;28;1890;-91
2022/03/21 00:37:47;;;;;;;;;;;;;;;2.64;68.85;101985.34;5039257;28;1267;-91
2022/03/21 00:40:13;;;;;;;;;;;;;;;2.55;68.01;101982.97;5038879;28;1491;-91
2022/03/21 00:42:40;;;;;;;;;;;;;;;2.37;68.98;101986.09;5038441;28;1282;-91
2022/03/21 00:45:06;;;;;;;;;;;;;;;2.49;68.89;101987.25;5038002;28;1223;-91
2022/03/21 00:47:31;;;;;;;;;;;;;;;2.51;69.44;101987.06;5038199;28;1263;-90
2022/03/21 00:49:57;;;;;;;;;;;;;;;2.50;68.46;101988.09;5038305;28;1492;-91
2022/03/21 00:52:22;;;;;;;;;;;;;;;2.58;68.95;101991.50;5037728;28;1287;-91
2022/03/21 00:54:47;;;;;;;;;;;;;;;2.60;68.23;101994.88;5037805;28;1901;-91
2022/03/21 00:57:12;;;;;;;;;;;;;;;2.67;68.01;101998.47;5037926;28;886;-91
2022/03/21 00:59:37;;;;;;;;;;;;;;;2.50;67.89;101998.91;5037935;28;1250;-91
2022/03/21 01:17:26;;;;;;;;;;;;;;;2.27;68.47;101989.09;5099752;28;1261;-91
2022/03/21 01:19:54;;;;;;;;;;;;;;;1.84;71.20;101992.69;5077568;28;1222;-91
2022/03/21 01:22:43;;;;;;;;;;;;;;;1.85;71.45;102002.47;5077704;28;1340;-91
2022/03/21 01:31:56;;;;;;;;;;;;;;;2.03;70.21;102000.22;5033028;28;1304;-91
2022/03/21 01:34:34;;;;;;;;;;;;;;;2.08;70.53;102005.88;5097666;28;1234;-90
2022/03/21 01:37:21;;;;;;;;;;;;;;;1.93;70.73;101998.81;5085129;28;1501;-91
2022/03/21 01:40:14;;;;;;;;;;;;;;;1.86;70.99;101996.03;5076907;28;1376;-91
2022/03/21 01:42:43;;;;;;;;;;;;;;;2.00;71.01;101999.75;5077204;28;1342;-91
2022/03/21 01:48:52;;;;;;;;;;;;;;;1.76;71.33;101998.19;5013019;28;1191;-91
2022/03/21 01:51:23;;;;;;;;;;;;;;;1.94;71.29;101993.25;5015494;28;1317;-91
2022/03/21 01:56:38;;;;;;;;;;;;;;;2.01;70.46;101994.16;5094995;28;1902;-91
2022/03/21 01:59:10;;;;;;;;;;;;;;;1.86;69.92;101996.88;5076840;28;1222;-91
2022/03/21 02:04:33;;;;;;;;;;;;;;;1.56;71.28;102002.44;5095643;28;1335;-91
2022/03/21 02:09:44;;;;;;;;;;;;;;;1.71;71.47;101995.19;5100453;28;1179;-91
2022/03/21 02:12:09;;;;;;;;;;;;;;;1.73;71.16;101993.97;5114997;28;1180;-90
2022/03/21 02:14:39;;;;;;;;;;;;;;;1.70;71.33;101994.34;5096323;28;1952;-90
2022/03/21 02:17:04;;;;;;;;;;;;;;;1.57;71.25;101994.16;5096607;28;1489;-90
2022/03/21 02:19:34;;;;;;;;;;;;;;;1.68;71.40;101991.00;5096850;28;1259;-91
2022/03/21 02:22:23;;;;;;;;;;;;;;;1.57;71.36;101998.72;5114752;28;1283;-90
2022/03/21 02:24:49;;;;;;;;;;;;;;;1.38;71.58;101997.38;5096477;28;1314;-90
2022/03/21 02:27:16;;;;;;;;;;;;;;;1.35;71.81;101997.78;5094663;28;1354;-90
2022/03/21 02:29:42;;;;;;;;;;;;;;;1.26;71.74;101996.16;5081910;28;1398;-90
2022/03/21 02:32:08;;;;;;;;;;;;;;;1.45;71.51;101995.63;5096287;28;1668;-91
2022/03/21 02:34:36;;;;;;;;;;;;;;;1.52;71.54;101989.34;5096270;28;1893;-90
2022/03/21 02:37:02;;;;;;;;;;;;;;;1.66;70.74;101986.81;5096315;28;1533;-91
2022/03/21 02:39:28;;;;;;;;;;;;;;;1.71;70.75;101984.38;5096239;28;1172;-91
2022/03/21 02:41:53;;;;;;;;;;;;;;;1.56;70.50;101995.19;5096073;28;1489;-91
2022/03/21 02:44:18;;;;;;;;;;;;;;;1.58;71.21;101995.00;5096162;28;1348;-90
2022/03/21 02:46:44;;;;;;;;;;;;;;;1.54;70.69;101999.91;5096198;28;1501;-89
2022/03/21 02:49:09;;;;;;;;;;;;;;;1.53;70.96;101999.06;5114577;28;872;-91
2022/03/21 02:51:39;;;;;;;;;;;;;;;1.46;71.28;101998.13;5096016;28;1235;-91
2022/03/21 02:54:04;;;;;;;;;;;;;;;1.26;71.11;101996.16;5096411;28;1355;-90
2022/03/21 02:56:29;;;;;;;;;;;;;;;1.57;70.41;101998.72;5096172;28;1902;-91
2022/03/21 02:58:54;;;;;;;;;;;;;;;1.58;70.41;102006.63;5096550;28;1331;-91
2022/03/21 03:01:20;;;;;;;;;;;;;;;1.52;70.77;102007.38;5096564;28;1302;-91
2022/03/21 03:03:45;;;;;;;;;;;;;;;1.48;70.81;102000.66;5096193;28;1279;-91
2022/03/21 03:06:13;;;;;;;;;;;;;;;1.48;70.81;102008.75;5114050;28;1501;-91
2022/03/21 03:08:41;;;;;;;;;;;;;;;1.48;70.80;102009.59;5095910;28;1513;-91
2022/03/21 03:11:11;;;;;;;;;;;;;;;1.45;71.22;102003.72;5091567;28;1534;-90
2022/03/21 03:13:37;;;;;;;;;;;;;;;1.53;69.92;102001.78;5091664;28;1373;-91
2022/03/21 03:16:56;;;;;;;;;;;;;;;1.29;70.78;102009.28;5041334;28;1902;-90
2022/03/21 03:19:22;;;;;;;;;;;;;;;1.43;70.21;102003.09;5034831;28;1255;-90
2022/03/21 03:22:03;;;;;;;;;;;;;;;1.58;70.21;102001.25;5054241;28;1211;-90
2022/03/21 03:24:40;;;;;;;;;;;;;;;1.53;70.34;102004.47;5086784;28;1473;-91
2022/03/21 03:27:05;;;;;;;;;;;;;;;1.35;70.47;102001.31;5099894;28;1306;-91
2022/03/21 03:29:31;;;;;;;;;;;;;;;1.37;70.62;102007.34;5100229;28;1253;-91
2022/03/21 03:32:00;;;;;;;;;;;;;;;1.40;70.59;102004.28;5099915;28;1204;-90
2022/03/21 03:40:49;;;;;;;;;;;;;;;1.30;70.99;102013.66;5035252;28;781;-91
2022/03/21 03:43:17;;;;;;;;;;;;;;;1.05;71.38;102004.94;5034718;28;1404;-92
2022/03/21 03:45:42;;;;;;;;;;;;;;;1.16;71.69;102011.75;5073971;28;1539;-91
2022/03/21 03:48:08;;;;;;;;;;;;;;;1.34;71.87;102005.03;5099702;28;1310;-90
2022/03/21 03:50:34;;;;;;;;;;;;;;;1.35;71.87;102011.25;5099476;28;1251;-91
2022/03/21 04:01:20;;;;;;;;;;;;;;;;;;;;;
2022/03/21 04:07:22;;;;;;;;;;;;;;;1.00;71.34;102013.59;4975722;28;1159;-91
2022/03/21 04:10:15;;;;;;;;;;;;;;;0.95;71.57;102012.44;5002856;28;1365;-91
2022/03/21 04:28:31;;;;;;;;;;;;;;;1.00;72.06;102023.53;5034128;28;1019;-91
2022/03/21 04:54:28;;;;;;;;;;;;;;;0.82;72.31;102039.16;5094964;28;1120;-91
2022/03/21 04:56:54;;;;;;;;;;;;;;;0.66;72.55;102045.50;5078012;28;1973;-89
2022/03/21 04:59:19;;;;;;;;;;;;;;;0.51;73.08;102037.31;5077941;28;1169;-90
2022/03/21 05:01:44;;;;;;;;;;;;;;;0.54;73.53;102045.03;5078040;28;1015;-90
2022/03/21 05:04:09;;;;;;;;;;;;;;;0.60;73.25;102043.47;5078132;28;1012;-89
2022/03/21 05:06:34;;;;;;;;;;;;;;;0.64;73.45;102045.66;5077762;28;1161;-89
2022/03/21 05:09:03;;;;;;;;;;;;;;;0.64;73.30;102052.91;5078106;28;1284;-89
2022/03/21 05:11:28;;;;;;;;;;;;;;;0.60;73.53;102048.88;5077907;28;1190;-89
2022/03/21 05:13:53;;;;;;;;;;;;;;;0.45;73.45;102059.56;5077783;28;1314;-89
2022/03/21 05:16:19;;;;;;;;;;;;;;;0.51;72.88;102055.34;5077743;28;1937;-89
2022/03/21 05:18:44;;;;;;;;;;;;;;;0.59;72.94;102052.63;5077721;28;1242;-90
2022/03/21 05:21:09;;;;;;;;;;;;;;;0.56;72.78;102053.78;5077572;28;1322;-89
2022/03/21 05:31:46;;;;;;;;;;;;;;;0.41;73.16;102055.56;5096283;28;697;-90
2022/03/21 05:36:55;;;;;;;;;;;;;;;0.28;73.85;102066.88;5095648;28;1890;-90
2022/03/21 05:39:23;;;;;;;;;;;;;;;0.27;73.88;102067.91;5077439;28;1183;-90
2022/03/21 05:41:51;;;;;;;;;;;;;;;0.42;73.82;102065.34;5077178;28;1301;-90
2022/03/21 05:44:17;;;;;;;;;;;;;;;0.45;73.48;102066.81;5075944;28;1483;-89
2022/03/21 05:46:52;;;;;;;;;;;;;;;0.41;73.81;102066.34;5075869;28;1344;-90
2022/03/21 05:49:17;;;;;;;;;;;;;;;0.45;73.81;102070.34;5068113;28;1245;-90
2022/03/21 05:51:42;;;;;;;;;;;;;;;0.55;73.92;102067.44;5077016;28;1287;-90
2022/03/21 05:54:08;;;;;;;;;;;;;;;0.49;73.84;102070.84;5075098;28;1253;-89
2022/03/21 05:56:34;;;;;;;;;;;;;;;0.40;74.06;102069.22;5067711;28;1894;-90
2022/03/21 06:00:20;;;;;;;;;;;;;;;0.50;74.50;102075.22;5074329;28;1248;-90
2022/03/21 06:01:45;;;;;;;;;;;;;;;0.51;73.88;102079.59;5074799;28;1249;-89
2022/03/21 06:04:10;;;;;;;;;;;;;;;0.40;73.69;102070.03;5066035;28;1474;-89
2022/03/21 06:09:38;;;;;;;;;;;;;;;0.66;73.01;102077.81;5086531;28;1180;-90
2022/03/21 06:12:04;;;;;;;;;;;;;;;0.66;72.89;102081.38;5056523;28;1385;-90
2022/03/21 06:14:29;;;;;;;;;;;;;;;0.83;73.52;102079.41;5056492;28;1308;-90
2022/03/21 06:16:54;;;;;;;;;;;;;;;0.75;72.28;102074.06;5056478;28;1967;-90
2022/03/21 06:19:20;;;;;;;;;;;;;;;0.85;72.87;102081.94;5056515;28;1195;-90
2022/03/21 06:21:46;;;;;;;;;;;;;;;0.68;74.18;102083.88;5056530;28;1195;-90
2022/03/21 06:24:12;;;;;;;;;;;;;;;0.77;74.21;102082.78;5056784;28;1378;-90
2022/03/21 06:26:38;;;;;;;;;;;;;;;0.76;74.12;102089.22;5056354;28;1352;-90
2022/03/21 06:29:04;;;;;;;;;;;;;;;0.68;73.82;102095.47;5056733;28;1381;-90
2022/03/21 06:31:29;;;;;;;;;;;;;;;0.92;73.93;102102.59;5056401;28;1419;-90
2022/03/21 06:33:54;;;;;;;;;;;;;;;1.16;73.52;102108.84;5056272;28;1006;-90
2022/03/21 06:36:19;;;;;;;;;;;;;;;1.23;71.93;102102.56;5056231;28;1951;-89
2022/03/21 06:38:44;;;;;;;;;;;;;;;1.34;72.86;102109.38;5056306;28;1111;-90
2022/03/21 06:41:10;;;;;;;;;;;;;;;1.37;72.69;102104.44;5074270;28;1031;-90
2022/03/21 06:43:35;;;;;;;;;;;;;;;1.48;72.18;102109.44;5056195;28;1416;-90
2022/03/21 06:46:00;;;;;;;;;;;;;;;1.61;72.60;102108.00;5074083;28;1169;-90
2022/03/21 06:48:25;;;;;;;;;;;;;;;1.67;71.94;102109.94;5056167;28;1307;-89
2022/03/21 06:50:51;;;;;;;;;;;;;;;1.86;71.44;102115.69;5056367;28;1385;-90
2022/03/21 06:53:17;;;;;;;;;;;;;;;2.00;71.04;102115.88;5056221;28;1227;-90
2022/03/21 06:55:42;;;;;;;;;;;;;;;2.12;71.40;102103.59;5056013;28;1949;-90
2022/03/21 06:58:11;;;;;;;;;;;;;;;2.28;71.18;102114.22;5056140;28;1183;-90
2022/03/21 07:00:36;;;;;;;;;;;;;;;2.42;70.63;102118.75;5056386;28;1299;-90
2022/03/21 07:03:01;;;;;;;;;;;;;;;2.52;70.34;102119.31;5056048;28;1281;-90
2022/03/21 07:05:28;;;;;;;;;;;;;;;2.71;69.45;102114.34;5056036;28;1274;-90
2022/03/21 07:07:53;;;;;;;;;;;;;;;2.85;69.18;102118.88;5055984;28;1199;-90
2022/03/21 07:10:19;;;;;;;;;;;;;;;2.98;66.52;102108.19;5074138;28;805;-90
2022/03/21 07:12:44;;;;;;;;;;;;;;;3.13;68.28;102122.53;5056321;28;1274;-90
2022/03/21 07:15:09;;;;;;;;;;;;;;;2.95;69.52;102125.69;5055763;28;1961;-90
2022/03/21 07:17:34;;;;;;;;;;;;;;;2.94;69.13;102126.69;5056060;28;1306;-89
2022/03/21 07:19:59;;;;;;;;;;;;;;;2.96;71.11;102121.94;5056306;28;1176;-90
2022/03/21 07:22:24;;;;;;;;;;;;;;;3.07;70.58;102126.00;5055886;28;1210;-90
2022/03/21 07:24:50;;;;;;;;;;;;;;;3.14;71.70;102121.53;5055753;28;1027;-90
2022/03/21 07:27:15;;;;;;;;;;;;;;;3.25;69.97;102125.56;5055850;28;1267;-90
2022/03/21 07:29:40;;;;;;;;;;;;;;;3.35;70.98;102129.63;5073686;28;1128;-90
2022/03/21 07:32:07;;;;;;;;;;;;;;;3.47;69.91;102129.97;5073926;28;786;-90
2022/03/21 07:34:32;;;;;;;;;;;;;;;3.59;68.78;102138.38;5056029;28;1317;-90
2022/03/21 07:36:57;;;;;;;;;;;;;;;3.71;68.69;102136.84;5055772;28;1889;-90
2022/03/21 07:39:22;;;;;;;;;;;;;;;3.78;66.50;102130.44;5073643;28;1079;-91
2022/03/21 07:41:47;;;;;;;;;;;;;;;3.90;64.09;102122.63;5055859;28;1323;-90
2022/03/21 07:47:17;;;;;;;;;;;;;;;3.99;62.87;102136.88;5055794;28;1330;-90
2022/03/21 07:49:43;;;;;;;;;;;;;;;4.16;61.70;102133.66;5073777;28;1200;-90
2022/03/21 07:52:09;;;;;;;;;;;;;;;4.23;61.46;102136.41;5055426;28;1223;-89
2022/03/21 07:54:34;;;;;;;;;;;;;;;4.29;60.83;102146.44;5055537;28;1382;-89
2022/03/21 07:56:59;;;;;;;;;;;;;;;4.37;61.11;102134.59;5055804;28;1894;-90
2022/03/21 07:59:25;;;;;;;;;;;;;;;4.43;60.05;102131.06;5055477;28;897;-90
2022/03/21 08:01:50;;;;;;;;;;;;;;;4.49;59.35;102143.84;5055512;28;1344;-90
2022/03/21 08:04:17;;;;;;;;;;;;;;;4.57;59.03;102149.09;5055504;28;1175;-90
2022/03/21 08:06:43;;;;;;;;;;;;;;;4.67;58.55;102143.31;5073372;28;1213;-90
2022/03/21 08:09:08;;;;;;;;;;;;;;;4.75;58.56;102140.44;5058171;28;1313;-90
2022/03/21 08:11:33;;;;;;;;;;;;;;;4.81;57.52;102139.63;5059093;28;1207;-90
2022/03/21 08:13:58;;;;;;;;;;;;;;;4.97;56.02;102133.00;5058886;28;1341;-91
2022/03/21 08:16:23;;;;;;;;;;;;;;;4.99;56.70;102136.34;5058956;28;1893;-90
2022/03/21 08:18:50;;;;;;;;;;;;;;;5.00;56.67;102143.44;5058944;28;1031;-91
2022/03/21 08:21:15;;;;;;;;;;;;;;;5.05;55.77;102144.50;5076677;28;821;-90
2022/03/21 08:23:42;;;;;;;;;;;;;;;5.13;56.26;102138.91;5058750;28;1205;-90
2022/03/21 08:26:07;;;;;;;;;;;;;;;5.23;54.50;102136.63;5058661;28;1414;-90
2022/03/21 08:28:32;;;;;;;;;;;;;;;5.30;53.78;102142.91;5058720;28;1152;-89
2022/03/21 08:30:57;;;;;;;;;;;;;;;5.41;53.98;102138.75;5059012;28;1011;-90
2022/03/21 08:33:23;;;;;;;;;;;;;;;5.46;52.48;102136.25;5058410;28;1226;-90
2022/03/21 08:35:48;;;;;;;;;;;;;;;5.56;52.07;102133.97;5058646;28;1951;-90
2022/03/21 08:38:13;;;;;;;;;;;;;;;5.66;52.12;102137.13;5058541;28;1214;-91
2022/03/21 08:40:39;;;;;;;;;;;;;;;5.73;52.72;102139.81;5058460;28;1263;-90
2022/03/21 08:43:22;;;;;;;;;;;;;;;5.79;51.83;102138.97;5058278;28;1206;-90
2022/03/21 08:45:48;;;;;;;;;;;;;;;5.86;51.58;102133.56;5058603;28;1260;-90
2022/03/21 08:48:13;;;;;;;;;;;;;;;5.96;51.20;102139.44;5058214;28;1355;-91
2022/03/21 08:50:38;;;;;;;;;;;;;;;6.03;51.60;102134.84;5057730;28;1306;-90
2022/03/21 08:53:03;;;;;;;;;;;;;;;6.06;50.99;102124.38;5057949;28;1003;-91
2022/03/21 08:55:28;;;;;;;;;;;;;;;6.11;50.82;102134.63;5058033;28;1901;-90
2022/03/21 08:57:54;;;;;;;;;;;;;;;6.10;51.33;102126.69;5058009;28;1247;-90
2022/03/21 09:00:19;;;;;;;;;;;;;;;6.14;50.19;102131.47;5058301;28;1274;-90
2022/03/21 09:02:46;;;;;;;;;;;;;;;6.19;50.54;102128.97;5058206;28;1191;-90
2022/03/21 09:05:12;;;;;;;;;;;;;;;6.21;50.57;102126.84;5057952;28;1329;-90
2022/03/21 09:07:37;;;;;;;;;;;;;;;6.22;51.66;102123.09;5057814;28;1281;-91
2022/03/21 09:10:03;;;;;;;;;;;;;;;6.32;51.00;102128.94;5057776;28;1257;-90
2022/03/21 09:12:29;;;;;;;;;;;;;;;6.40;50.59;102127.84;5057879;28;1175;-91
2022/03/21 09:14:55;;;;;;;;;;;;;;;6.46;50.44;102129.75;5057646;28;1965;-90
2022/03/21 09:17:20;;;;;;;;;;;;;;;6.53;50.33;102121.56;5057951;28;1240;-90
2022/03/21 09:19:45;;;;;;;;;;;;;;;6.59;50.59;102121.53;5057908;28;1375;-90
2022/03/21 09:22:10;;;;;;;;;;;;;;;6.65;50.45;102114.38;5075525;28;1051;-90
2022/03/21 09:24:35;;;;;;;;;;;;;;;6.70;49.89;102114.59;5057749;28;1039;-90
2022/03/21 09:27:00;;;;;;;;;;;;;;;6.75;49.49;102112.06;5057788;28;1346;-90
2022/03/21 09:29:26;;;;;;;;;;;;;;;6.77;50.12;102113.50;5057485;28;1445;-91
2022/03/21 09:31:51;;;;;;;;;;;;;;;6.86;50.62;102119.53;5057447;28;1216;-90
2022/03/21 09:34:17;;;;;;;;;;;;;;;6.91;49.62;102113.44;5057283;28;1187;-91
2022/03/21 09:36:43;;;;;;;;;;;;;;;6.95;49.61;102118.25;5057330;28;2004;-90
2022/03/21 09:39:08;;;;;;;;;;;;;;;6.98;49.85;102116.97;5057176;28;1417;-90
2022/03/21 09:41:46;;;;;;;;;;;;;;;7.02;49.23;102102.72;5057165;28;1182;-90
2022/03/21 09:44:12;;;;;;;;;;;;;;;7.12;49.29;102108.53;5057079;28;1341;-90
2022/03/21 09:46:37;;;;;;;;;;;;;;;7.21;49.25;102104.50;5057381;28;1275;-90
2022/03/21 09:49:03;;;;;;;;;;;;;;;7.29;48.30;102105.28;5057162;28;1187;-90
2022/03/21 09:51:29;;;;;;;;;;;;;;;7.35;48.85;102102.50;5057024;28;1216;-90
2022/03/21 09:53:55;;;;;;;;;;;;;;;7.37;48.77;102096.84;5057057;28;1277;-90
2022/03/21 09:56:21;;;;;;;;;;;;;;;7.40;48.75;102099.94;5057024;28;1898;-90
2022/03/21 09:58:47;;;;;;;;;;;;;;;7.47;48.74;102089.84;5056824;28;1301;-90
2022/03/21 10:01:12;;;;;;;;;;;;;;;7.48;48.82;102096.97;5074902;28;912;-90
2022/03/21 10:03:38;;;;;;;;;;;;;;;7.50;49.23;102102.19;5056920;28;1377;-90
2022/03/21 10:06:23;;;;;;;;;;;;;;;7.53;48.97;102096.31;5056890;28;1294;-90
2022/03/21 10:08:49;;;;;;;;;;;;;;;7.55;49.16;102091.47;5056569;28;1324;-90
2022/03/21 10:11:14;;;;;;;;;;;;;;;7.58;49.05;102088.28;5056665;28;1210;-90
2022/03/21 10:13:43;;;;;;;;;;;;;;;7.68;49.37;102091.34;5056937;28;1198;-90
2022/03/21 10:16:12;;;;;;;;;;;;;;;7.78;48.73;102079.94;5056527;28;1961;-90
2022/03/21 10:18:38;;;;;;;;;;;;;;;7.85;48.70;102080.72;5057138;28;1239;-90
2022/03/21 10:21:14;;;;;;;;;;;;;;;7.90;48.20;102079.00;5056876;28;1338;-90
2022/03/21 10:23:39;;;;;;;;;;;;;;;7.99;48.23;102072.19;5056636;28;1187;-90
2022/03/21 10:26:23;;;;;;;;;;;;;;;8.05;47.88;102065.00;5056426;28;1254;-90
2022/03/21 10:28:51;;;;;;;;;;;;;;;8.08;47.61;102070.00;5056485;28;1286;-90
2022/03/21 10:31:32;;;;;;;;;;;;;;;8.21;47.89;102066.31;5055846;28;1270;-90
2022/03/21 10:34:01;;;;;;;;;;;;;;;8.25;47.88;102062.06;5056782;28;1247;-90
2022/03/21 10:36:26;;;;;;;;;;;;;;;8.29;47.18;102069.56;5056175;28;1893;-90
2022/03/21 10:39:05;;;;;;;;;;;;;;;8.31;47.24;102064.75;5056115;28;1323;-90
2022/03/21 10:41:37;;;;;;;;;;;;;;;8.43;47.23;102072.16;5056166;28;1232;-90
2022/03/21 10:44:03;;;;;;;;;;;;;;;8.45;47.43;102068.16;5056222;28;1426;-90
2022/03/21 10:46:28;;;;;;;;;;;;;;;8.46;46.78;102067.09;5072039;23;2028;-88
2022/03/21 10:49:00;;;;;;;;;;;;;;;8.58;47.20;102065.28;5035946;28;1017;-88
2022/03/21 10:51:25;;;;;;;;;;;;;;;8.61;46.48;102073.00;5036100;28;1229;-88
2022/03/21 10:53:53;;;;;;;;;;;;;;;8.83;45.24;102069.78;5036006;28;992;-88
2022/03/21 10:56:18;;;;;;;;;;;;;;;9.05;43.55;102074.50;5053764;28;1914;-88
2022/03/21 10:58:44;;;;;;;;;;;;;;;8.97;45.55;102063.91;5035832;28;984;-87
2022/03/21 11:01:15;;;;;;;;;;;;;;;8.97;44.89;102063.91;5053935;28;967;-88
2022/03/21 11:03:41;;;;;;;;;;;;;;;8.96;44.24;102067.69;5035607;28;1363;-87
2022/03/21 11:06:07;;;;;;;;;;;;;;;9.32;43.09;102061.28;5035865;28;1366;-88
2022/03/21 11:08:32;;;;;;;;;;;;;;;9.60;41.88;102066.09;5053607;28;956;-88
2022/03/21 11:10:57;;;;;;;;;;;;;;;9.67;42.15;102065.97;5036085;28;1314;-87
2022/03/21 11:13:23;;;;;;;;;;;;;;;9.66;41.89;102058.84;5035665;28;1195;-88
2022/03/21 11:15:48;;;;;;;;;;;;;;;9.70;41.38;102044.44;5035676;28;1898;-88
2022/03/21 11:18:14;;;;;;;;;;;;;;;9.61;42.22;102045.88;5053596;28;821;-88
2022/03/21 11:20:39;;;;;;;;;;;;;;;9.62;43.76;102049.44;5035584;28;1303;-87
2022/03/21 11:23:04;;;;;;;;;;;;;;;9.62;43.27;102054.91;5035425;28;1191;-87
2022/03/21 11:25:30;;;;;;;;;;;;;;;9.72;43.94;102049.69;5035733;28;1192;-88
2022/03/21 11:28:19;;;;;;;;;;;;;;;9.80;43.71;102043.84;5035725;28;1394;-88
2022/03/21 11:31:03;;;;;;;;;;;;;;;9.85;43.11;102044.84;5007734;28;1288;-87
2022/03/21 11:33:35;;;;;;;;;;;;;;;9.90;42.63;102046.00;5035706;28;1243;-88
2022/03/21 11:36:02;;;;;;;;;;;;;;;9.97;43.97;102047.53;5035482;28;1894;-87
2022/03/21 11:38:34;;;;;;;;;;;;;;;10.13;42.41;102046.81;5053342;28;848;-87
2022/03/21 11:41:10;;;;;;;;;;;;;;;10.18;43.63;102040.66;5035463;28;1258;-89
2022/03/21 11:43:35;;;;;;;;;;;;;;;10.52;40.63;102037.03;5055091;28;789;-89
2022/03/21 11:46:19;;;;;;;;;;;;;;;10.71;41.83;102032.19;5056729;28;1205;-88
2022/03/21 11:48:44;;;;;;;;;;;;;;;10.57;42.15;102028.91;5039124;28;1249;-89
2022/03/21 11:51:18;;;;;;;;;;;;;;;10.54;42.63;102031.31;5039019;28;1007;-88
2022/03/21 11:53:45;;;;;;;;;;;;;;;10.55;40.68;102027.47;5038821;28;1327;-88
2022/03/21 11:56:14;;;;;;;;;;;;;;;10.63;42.19;102025.19;5038581;28;1967;-89
2022/03/21 11:58:39;;;;;;;;;;;;;;;10.73;41.52;102019.06;5038827;28;1164;-89
2022/03/21 12:01:09;;;;;;;;;;;;;;;10.74;40.08;102020.75;5038855;28;1010;-89
2022/03/21 12:03:35;;;;;;;;;;;;;;;10.84;41.41;102018.19;5056543;28;1071;-88
2022/03/21 12:06:23;;;;;;;;;;;;;;;10.94;41.77;102012.91;5038661;28;1553;-88
2022/03/21 12:08:51;;;;;;;;;;;;;;;11.01;41.69;102010.00;5029163;28;1229;-89
2022/03/21 12:11:36;;;;;;;;;;;;;;;11.09;41.37;102008.78;5038431;28;1308;-88
2022/03/21 12:14:40;;;;;;;;;;;;;;;11.21;41.63;102001.34;5025497;28;1227;-89
2022/03/21 12:17:05;;;;;;;;;;;;;;;11.32;41.14;102000.41;4958997;28;2021;-88
2022/03/21 12:22:36;;;;;;;;;;;;;;;11.62;40.59;102002.81;5036568;28;932;-89
2022/03/21 12:25:07;;;;;;;;;;;;;;;11.63;40.56;101985.28;5018271;28;1339;-89
2022/03/21 12:27:38;;;;;;;;;;;;;;;11.65;40.98;101988.63;5018544;28;1192;-88
2022/03/21 12:30:19;;;;;;;;;;;;;;;11.72;39.54;101990.09;5018571;28;1222;-89
2022/03/21 12:32:47;;;;;;;;;;;;;;;11.84;40.21;101986.44;5018250;28;1192;-88
2022/03/21 12:35:31;;;;;;;;;;;;;;;12.01;39.79;101981.72;5035714;28;1890;-88
2022/03/21 12:38:00;;;;;;;;;;;;;;;12.14;39.51;101975.88;5018381;28;1322;-89
2022/03/21 12:40:25;;;;;;;;;;;;;;;12.20;40.69;101972.09;5035998;28;1054;-88
2022/03/21 12:42:51;;;;;;;;;;;;;;;12.30;39.71;101979.66;5018233;28;1220;-88
2022/03/21 12:45:17;;;;;;;;;;;;;;;12.42;39.81;101972.91;5017800;28;1209;-89
2022/03/21 12:47:42;;;;;;;;;;;;;;;12.49;39.45;101973.56;5018154;28;1227;-88
2022/03/21 12:50:07;;;;;;;;;;;;;;;12.51;39.38;101965.88;5018117;28;1169;-88
2022/03/21 12:52:33;;;;;;;;;;;;;;;12.69;39.60;101970.19;5018080;28;1475;-88
2022/03/21 12:54:58;;;;;;;;;;;;;;;12.79;39.10;101961.22;5017240;28;1205;-88
2022/03/21 12:57:24;;;;;;;;;;;;;;;12.90;38.16;101965.75;5035620;28;821;-89
2022/03/21 12:59:49;;;;;;;;;;;;;;;13.14;38.89;101964.34;5017811;28;1405;-88
2022/03/21 13:02:24;;;;;;;;;;;;;;;13.25;38.02;101965.28;5017915;28;1168;-88
2022/03/21 13:10:34;;;;;;;;;;;;;;;13.76;37.41;101957.38;5035796;28;639;-89
2022/03/21 13:13:04;;;;;;;;;;;;;;;14.22;36.97;101958.41;5035296;28;822;-88
2022/03/21 13:15:29;;;;;;;;;;;;;;;14.45;36.26;101958.00;5017482;28;1894;-89
2022/03/21 13:18:01;;;;;;;;;;;;;;;14.61;36.81;101956.09;5017526;28;1267;-88
2022/03/21 13:20:26;;;;;;;;;;;;;;;15.70;35.03;101949.25;5017531;28;1270;-89
2022/03/21 13:22:52;;;;;;;;;;;;;;;20.49;29.25;101945.75;5035126;28;790;-89
2022/03/21 13:25:25;;;;;;;;;;;;;;;23.60;23.87;101934.59;5017182;28;1287;-89
2022/03/21 13:27:50;;;;;;;;;;;;;;;23.34;23.42;101929.06;5017248;28;1351;-88
2022/03/21 13:30:16;;;;;;;;;;;;;;;21.46;25.11;101931.13;5017251;28;1450;-88
2022/03/21 13:32:42;;;;;;;;;;;;;;;20.45;26.53;101936.38;5017253;28;1257;-89
2022/03/21 13:35:07;;;;;;;;;;;;;;;19.99;26.48;101940.09;5034616;28;1876;-89
2022/03/21 13:37:32;;;;;;;;;;;;;;;20.48;26.74;101932.97;5017077;28;1260;-89
2022/03/21 13:40:02;;;;;;;;;;;;;;;19.81;27.51;101929.09;5017334;28;1020;-89
2022/03/21 13:42:31;;;;;;;;;;;;;;;19.43;28.28;101931.16;5017281;28;1292;-89
2022/03/21 13:45:01;;;;;;;;;;;;;;;20.07;27.45;101926.63;5016942;28;1375;-88
2022/03/21 13:47:27;;;;;;;;;;;;;;;20.97;27.01;101926.53;5017039;28;1245;-89
2022/03/21 13:50:03;;;;;;;;;;;;;;;20.68;26.03;101918.59;5034657;28;813;-88
2022/03/21 13:52:38;;;;;;;;;;;;;;;20.12;27.40;101923.72;5016960;28;1240;-89
2022/03/21 13:55:03;;;;;;;;;;;;;;;22.94;22.99;101917.28;5034197;28;1977;-88
2022/03/21 13:57:28;;;;;;;;;;;;;;;22.26;25.36;101918.84;5016716;28;1131;-88
2022/03/21 13:59:58;;;;;;;;;;;;;;;20.88;25.69;101914.50;5016817;28;980;-89
2022/03/21 14:02:23;;;;;;;;;;;;;;;19.22;27.51;101914.06;5016729;28;1290;-88
2022/03/21 14:04:48;;;;;;;;;;;;;;;18.23;29.08;101916.91;5016181;28;1176;-89
2022/03/21 14:07:15;;;;;;;;;;;;;;;17.59;30.87;101920.97;5016068;28;1263;-89
2022/03/21 14:09:48;;;;;;;;;;;;;;;17.38;32.20;101917.59;5021522;28;1468;-89
2022/03/21 14:12:13;;;;;;;;;;;;;;;17.41;31.14;101907.88;5053806;28;1423;-87
2022/03/21 14:14:38;;;;;;;;;;;;;;;18.93;29.38;101908.69;5035753;28;1420;-91
2022/03/21 14:17:04;;;;;;;;;;;;;;;20.74;26.76;101908.16;5034454;28;1961;-89
2022/03/21 14:19:30;;;;;;;;;;;;;;;21.44;26.11;101907.50;5033928;28;1028;-88
2022/03/21 14:21:55;;;;;;;;;;;;;;;20.90;25.65;101901.09;5016796;28;1483;-88
2022/03/21 14:24:20;;;;;;;;;;;;;;;19.13;28.99;101899.22;5032408;28;1175;-88
2022/03/21 14:26:45;;;;;;;;;;;;;;;18.08;31.68;101908.81;5035322;28;1305;-87
2022/03/21 14:29:11;;;;;;;;;;;;;;;18.62;30.95;101893.66;5031680;28;1252;-88
2022/03/21 14:31:37;;;;;;;;;;;;;;;19.25;29.24;101896.75;5037705;28;1412;-88
2022/03/21 14:34:03;;;;;;;;;;;;;;;20.60;27.98;101896.25;5032339;28;1511;-89
2022/03/21 14:36:28;;;;;;;;;;;;;;;21.21;27.14;101892.81;5032293;28;1914;-89
2022/03/21 14:38:53;;;;;;;;;;;;;;;21.23;26.61;101890.53;5033686;28;829;-89
2022/03/21 14:41:20;;;;;;;;;;;;;;;21.85;26.65;101893.28;5035622;28;1377;-88
2022/03/21 14:43:45;;;;;;;;;;;;;;;21.08;26.99;101885.34;5033971;28;1285;-89
2022/03/21 14:46:11;;;;;;;;;;;;;;;20.43;27.23;101890.53;5029419;28;1476;-88
2022/03/21 14:48:36;;;;;;;;;;;;;;;19.38;29.08;101887.66;5050991;28;1467;-89
2022/03/21 14:51:05;;;;;;;;;;;;;;;18.36;29.65;101893.19;5026193;28;1196;-87
2022/03/21 14:53:30;;;;;;;;;;;;;;;18.11;30.93;101886.06;5030107;28;1346;-89
2022/03/21 14:55:58;;;;;;;;;;;;;;;17.84;31.52;101885.84;5035096;28;1894;-88